createdAt,value
2022-09-11T00:01:00.349Z,37.58
2022-09-11T00:03:28.173Z,38.03
2022-09-11T00:05:54.981Z,38.65
2022-09-11T00:08:22.004Z,40.55
2022-09-11T00:10:49.914Z,43.13
2022-09-11T00:13:21.416Z,42.03
2022-09-11T00:15:51.842Z,45.22
2022-09-11T00:18:23.937Z,42.72
2022-09-11T00:20:55.673Z,43.38
2022-09-11T00:23:24.414Z,44.90
2022-09-11T00:25:51.427Z,43.15
2022-09-11T00:28:22.693Z,44.88
2022-09-11T00:31:00.442Z,45.67
2022-09-11T00:33:27.935Z,44.33
2022-09-11T00:35:58.330Z,43.10
2022-09-11T00:38:27.070Z,40.30
2022-09-11T00:40:54.523Z,43.40
2022-09-11T00:43:21.877Z,43.33
2022-09-11T00:45:55.217Z,44.05
2022-09-11T00:48:24.809Z,44.42
2022-09-11T00:50:53.104Z,45.80
2022-09-11T00:53:21.742Z,44.53
2022-09-11T00:55:54.128Z,46.22
2022-09-11T00:58:24.103Z,46.13
2022-09-11T01:00:53.867Z,44.80
2022-09-11T01:03:20.664Z,43.90
2022-09-11T01:05:48.724Z,45.05
2022-09-11T01:08:15.832Z,42.50
2022-09-11T01:11:28.292Z,41.53
2022-09-11T01:14:12.113Z,40.35
2022-09-11T01:16:53.164Z,40.40
2022-09-11T01:19:46.534Z,39.13
2022-09-11T01:22:31.679Z,41.38
2022-09-11T01:25:19.312Z,38.28
2022-09-11T01:27:51.690Z,40.10
2022-09-11T01:30:21.128Z,42.78
2022-09-11T01:32:51.837Z,43.05
2022-09-11T01:35:21.900Z,42.88
2022-09-11T01:37:56.101Z,45.72
2022-09-11T01:40:29.367Z,44.17
2022-09-11T01:43:06.054Z,43.40
2022-09-11T01:45:37.200Z,44.42
2022-09-11T01:48:05.482Z,43.63
2022-09-11T01:50:33.457Z,44.78
2022-09-11T01:53:05.063Z,45.55
2022-09-11T01:55:37.738Z,43.58
2022-09-11T01:58:15.786Z,43.47
2022-09-11T02:00:45.300Z,41.33
2022-09-11T02:03:22.556Z,44.92
2022-09-11T02:06:02.161Z,44.45
2022-09-11T02:08:32.656Z,43.90
2022-09-11T02:11:07.063Z,44.13
2022-09-11T02:13:36.350Z,47.67
2022-09-11T02:16:28.756Z,46.95
2022-09-11T02:19:05.229Z,45.10
2022-09-11T02:21:34.835Z,47.53
2022-09-11T02:24:02.384Z,50.58
2022-09-11T02:26:32.034Z,49.83
2022-09-11T02:28:59.760Z,48.30
2022-09-11T02:31:27.993Z,47.35
2022-09-11T02:33:54.980Z,48.22
2022-09-11T02:36:28.054Z,47.33
2022-09-11T02:39:42.445Z,49.50
2022-09-11T02:42:31.168Z,50.35
2022-09-11T02:45:16.674Z,49.58
2022-09-11T02:48:26.176Z,49.45
2022-09-11T02:51:15.665Z,49.72
2022-09-11T02:54:15.025Z,48.97
2022-09-11T02:56:52.080Z,48.72
2022-09-11T02:59:34.327Z,49.95
2022-09-11T03:02:03.498Z,50.92
2022-09-11T03:04:30.120Z,50.10
2022-09-11T03:06:58.647Z,51.80
2022-09-11T03:09:25.227Z,48.88
2022-09-11T03:11:51.754Z,51.22
2022-09-11T03:14:18.583Z,49.63
2022-09-11T03:16:45.177Z,48.67
2022-09-11T03:19:12.161Z,49.75
2022-09-11T03:21:39.330Z,44.83
2022-09-11T03:24:06.931Z,48.85
2022-09-11T03:26:33.544Z,40.40
2022-09-11T03:29:00.234Z,48.15
2022-09-11T03:31:28.307Z,42.13
2022-09-11T03:33:55.718Z,45.83
2022-09-11T03:36:22.714Z,46.15
2022-09-11T03:38:49.653Z,41.17
2022-09-11T03:41:16.611Z,35.33
2022-09-11T03:43:43.698Z,36.17
2022-09-11T03:46:10.680Z,39.80
2022-09-11T03:48:37.204Z,43.20
2022-09-11T03:51:05.620Z,37.17
2022-09-11T03:53:33.083Z,38.85
2022-09-11T03:56:00.342Z,36.92
2022-09-11T03:58:27.118Z,37.80
2022-09-11T04:00:54.111Z,42.20
2022-09-11T04:03:20.993Z,38.25
2022-09-11T04:06:02.492Z,40.85
2022-09-11T04:08:33.881Z,35.83
2022-09-11T04:11:04.040Z,36.33
2022-09-11T04:13:35.967Z,37.38
2022-09-11T04:16:08.283Z,38.25
2022-09-11T04:18:38.281Z,37.15
2022-09-11T04:21:10.161Z,39.13
2022-09-11T04:23:37.423Z,37.08
2022-09-11T04:26:15.775Z,37.33
2022-09-11T04:28:43.187Z,34.67
2022-09-11T04:31:10.295Z,34.95
2022-09-11T04:33:39.837Z,36.08
2022-09-11T04:36:13.044Z,33.90
2022-09-11T04:38:43.711Z,34.78
2022-09-11T04:41:10.575Z,34.05
2022-09-11T04:43:38.940Z,32.67
2022-09-11T04:46:08.432Z,30.15
2022-09-11T04:48:36.891Z,31.02
2022-09-11T04:51:08.445Z,28.95
2022-09-11T04:53:37.654Z,31.20
2022-09-11T04:56:08.275Z,29.45
2022-09-11T04:58:35.959Z,29.38
2022-09-11T05:01:10.258Z,29.65
2022-09-11T05:03:37.185Z,30.67
2022-09-11T05:06:08.942Z,31.45
2022-09-11T05:08:37.061Z,30.02
2022-09-11T05:11:06.690Z,31.95
2022-09-11T05:13:36.360Z,29.80
2022-09-11T05:16:11.531Z,29.35
2022-09-11T05:18:40.130Z,27.73
2022-09-11T05:21:12.929Z,28.20
2022-09-11T05:23:39.734Z,29.70
2022-09-11T05:26:08.005Z,27.75
2022-09-11T05:28:34.802Z,28.30
2022-09-11T05:31:02.601Z,26.30
2022-09-11T05:33:29.328Z,29.33
2022-09-11T05:36:04.982Z,30.88
2022-09-11T05:38:31.668Z,30.90
2022-09-11T05:40:58.300Z,32.08
2022-09-11T05:43:26.363Z,31.00
2022-09-11T05:45:57.939Z,29.15
2022-09-11T05:48:25.432Z,30.35
2022-09-11T05:50:54.405Z,28.92
2022-09-11T05:53:21.519Z,28.45
2022-09-11T05:55:49.133Z,29.17
2022-09-11T05:58:19.220Z,26.25
2022-09-11T06:00:46.661Z,27.02
2022-09-11T06:03:15.506Z,26.13
2022-09-11T06:05:42.492Z,25.00
2022-09-11T06:08:10.449Z,24.48
2022-09-11T06:10:46.364Z,22.13
2022-09-11T06:13:13.119Z,22.15
2022-09-11T06:15:58.520Z,20.80
2022-09-11T06:18:25.496Z,20.77
2022-09-11T06:21:03.593Z,19.92
2022-09-11T06:23:30.431Z,21.73
2022-09-11T06:26:11.616Z,19.95
2022-09-11T06:28:39.405Z,20.15
2022-09-11T06:31:09.206Z,19.25
2022-09-11T06:33:38.055Z,18.17
2022-09-11T06:36:16.476Z,18.27
2022-09-11T06:38:46.971Z,18.85
2022-09-11T06:41:16.764Z,16.40
2022-09-11T06:43:44.553Z,17.42
2022-09-11T06:46:19.939Z,17.05
2022-09-11T06:48:49.009Z,17.45
2022-09-11T06:51:17.594Z,17.30
2022-09-11T06:53:45.232Z,16.23
2022-09-11T06:56:14.356Z,16.30
2022-09-11T06:58:41.434Z,16.75
2022-09-11T07:01:11.852Z,16.38
2022-09-11T07:03:41.552Z,15.20
2022-09-11T07:06:08.191Z,15.55
2022-09-11T07:08:34.761Z,15.50
2022-09-11T07:11:05.548Z,15.02
2022-09-11T07:13:37.177Z,14.95
2022-09-11T07:16:08.237Z,15.07
2022-09-11T07:18:36.463Z,13.50
2022-09-11T07:21:12.910Z,13.63
2022-09-11T07:23:40.977Z,13.88
2022-09-11T07:26:10.903Z,12.90
2022-09-11T07:28:39.313Z,12.07
2022-09-11T07:31:10.661Z,11.98
2022-09-11T07:33:48.834Z,12.45
2022-09-11T07:36:19.964Z,11.73
2022-09-11T07:38:48.251Z,12.13
2022-09-11T07:41:16.688Z,11.40
2022-09-11T07:43:46.466Z,10.52
2022-09-11T07:46:14.594Z,11.50
2022-09-11T07:48:43.039Z,9.93
2022-09-11T07:51:12.362Z,9.75
2022-09-11T07:53:44.246Z,9.85
2022-09-11T07:56:19.698Z,9.50
2022-09-11T07:58:48.373Z,9.07
2022-09-11T08:01:26.750Z,9.55
2022-09-11T08:04:01.660Z,9.77
2022-09-11T08:06:30.507Z,9.45
2022-09-11T08:08:58.991Z,9.63
2022-09-11T08:11:28.131Z,10.18
2022-09-11T08:13:55.966Z,10.15
2022-09-11T08:16:25.330Z,9.90
2022-09-11T08:18:52.315Z,8.82
2022-09-11T08:21:19.237Z,8.93
2022-09-11T08:23:46.767Z,8.05
2022-09-11T08:26:16.521Z,8.13
2022-09-11T08:28:44.073Z,8.48
2022-09-11T08:31:12.452Z,8.00
2022-09-11T08:33:39.854Z,7.70
2022-09-11T08:36:09.741Z,7.97
2022-09-11T08:38:39.539Z,8.63
2022-09-11T08:41:16.506Z,8.20
2022-09-11T08:43:50.919Z,7.88
2022-09-11T08:46:20.869Z,6.95
2022-09-11T08:49:01.170Z,4.88
2022-09-11T08:51:28.073Z,4.30
2022-09-11T08:53:56.953Z,3.40
2022-09-11T08:56:28.661Z,4.00
2022-09-11T08:59:23.164Z,3.97
2022-09-11T09:02:16.131Z,4.05
2022-09-11T09:04:56.293Z,3.60
2022-09-11T09:07:48.638Z,3.80
2022-09-11T09:10:35.482Z,3.70
2022-09-11T09:13:15.504Z,4.03
2022-09-11T09:16:23.770Z,4.10
2022-09-11T09:18:57.908Z,2.90
2022-09-11T09:21:31.503Z,3.05
2022-09-11T09:24:05.342Z,3.25
2022-09-11T09:26:41.434Z,2.92
2022-09-11T09:29:14.713Z,3.05
2022-09-11T09:31:43.107Z,2.95
2022-09-11T09:34:18.080Z,3.65
2022-09-11T09:36:57.694Z,3.60
2022-09-11T09:39:24.997Z,3.60
2022-09-11T09:42:29.745Z,3.03
2022-09-11T09:45:40.854Z,3.10
2022-09-11T09:48:11.390Z,2.45
2022-09-11T09:50:40.372Z,2.65
2022-09-11T09:53:28.722Z,2.40
2022-09-11T09:55:56.574Z,2.33
2022-09-11T09:58:32.092Z,2.70
2022-09-11T10:00:59.361Z,2.97
2022-09-11T10:03:26.490Z,2.63
2022-09-11T10:05:54.658Z,2.50
2022-09-11T10:08:36.174Z,2.75
2022-09-11T10:11:12.089Z,1.98
2022-09-11T10:13:42.347Z,2.30
2022-09-11T10:16:27.022Z,2.60
2022-09-11T10:18:55.597Z,2.65
2022-09-11T10:21:35.684Z,2.70
2022-09-11T10:24:17.493Z,2.92
2022-09-11T10:26:50.960Z,1.52
2022-09-11T10:29:30.026Z,1.58
2022-09-11T10:31:59.613Z,1.67
2022-09-11T10:34:34.042Z,1.63
2022-09-11T10:37:04.159Z,1.85
2022-09-11T10:39:35.404Z,2.42
2022-09-11T10:42:17.028Z,2.10
2022-09-11T10:44:47.872Z,1.63
2022-09-11T10:47:18.426Z,1.83
2022-09-11T10:49:51.029Z,1.80
2022-09-11T10:52:22.219Z,1.83
2022-09-11T10:55:00.655Z,2.55
2022-09-11T10:57:29.865Z,2.40
2022-09-11T11:00:10.668Z,2.17
2022-09-11T11:02:41.041Z,2.10
2022-09-11T11:05:15.258Z,1.63
2022-09-11T11:08:03.631Z,1.80
2022-09-11T11:10:46.904Z,1.55
2022-09-11T11:13:39.014Z,1.30
2022-09-11T11:16:22.562Z,1.20
2022-09-11T11:19:01.110Z,1.75
2022-09-11T11:21:40.268Z,2.40
2022-09-11T11:24:39.151Z,2.10
2022-09-11T11:27:44.974Z,1.30
2022-09-11T11:30:19.059Z,0.90
2022-09-11T11:33:08.419Z,0.60
2022-09-11T11:36:03.022Z,0.70
2022-09-11T11:38:52.896Z,0.50
2022-09-11T11:41:23.827Z,0.60
2022-09-11T11:43:55.459Z,0.60
2022-09-11T11:46:45.922Z,0.68
2022-09-11T11:49:16.619Z,0.40
2022-09-11T11:52:00.396Z,0.60
2022-09-11T11:54:38.853Z,0.60
2022-09-11T11:57:11.538Z,0.80
2022-09-11T12:00:03.637Z,0.80
2022-09-11T12:02:52.935Z,0.70
2022-09-11T12:05:26.403Z,0.60
2022-09-11T12:07:53.399Z,0.43
2022-09-11T12:10:34.162Z,0.70
2022-09-11T12:13:03.544Z,1.02
2022-09-11T12:15:33.572Z,0.70
2022-09-11T12:18:06.817Z,0.65
2022-09-11T12:20:45.042Z,0.70
2022-09-11T12:23:30.603Z,0.45
2022-09-11T12:26:08.482Z,0.70
2022-09-11T12:28:36.008Z,0.60
2022-09-11T12:31:08.258Z,1.27
2022-09-11T12:33:40.932Z,0.68
2022-09-11T12:36:19.117Z,0.77
2022-09-11T12:39:03.420Z,0.70
2022-09-11T12:41:36.388Z,0.68
2022-09-11T12:44:04.412Z,0.60
2022-09-11T12:46:31.105Z,0.68
2022-09-11T12:49:22.224Z,0.73
2022-09-11T12:51:59.673Z,0.55
2022-09-11T12:54:38.361Z,0.68
2022-09-11T12:57:26.703Z,0.50
2022-09-11T12:59:59.286Z,0.60
2022-09-11T13:02:29.010Z,0.60
2022-09-11T13:04:56.868Z,0.50
2022-09-11T13:07:33.133Z,0.50
2022-09-11T13:10:08.468Z,0.40
2022-09-11T13:12:35.039Z,0.40
2022-09-11T13:15:01.590Z,0.52
2022-09-11T13:17:33.328Z,0.45
2022-09-11T13:20:20.589Z,0.50
2022-09-11T13:22:48.875Z,0.35
2022-09-11T13:25:21.713Z,0.30
2022-09-11T13:27:53.988Z,0.43
2022-09-11T13:30:22.881Z,0.40
2022-09-11T13:33:01.188Z,0.38
2022-09-11T13:35:29.894Z,0.30
2022-09-11T13:38:18.276Z,0.35
2022-09-11T13:40:49.780Z,0.30
2022-09-11T13:43:20.730Z,0.30
2022-09-11T13:45:47.577Z,0.40
2022-09-11T13:48:21.578Z,0.30
2022-09-11T13:50:50.560Z,0.40
2022-09-11T13:53:19.978Z,0.30
2022-09-11T13:55:48.660Z,0.35
2022-09-11T13:58:35.106Z,0.50
2022-09-11T14:01:28.065Z,0.30
2022-09-11T14:03:55.328Z,0.38
2022-09-11T14:06:21.974Z,0.40
2022-09-11T14:08:56.058Z,0.40
2022-09-11T14:11:28.848Z,0.35
2022-09-11T14:14:07.777Z,0.40
2022-09-11T14:16:45.271Z,0.30
2022-09-11T14:19:19.428Z,0.30
2022-09-11T14:21:48.278Z,0.30
2022-09-11T14:24:32.893Z,0.40
2022-09-11T14:27:01.860Z,0.30
2022-09-11T14:29:33.527Z,0.40
2022-09-11T14:32:29.630Z,0.20
2022-09-11T14:34:56.167Z,0.40
2022-09-11T14:37:24.346Z,0.30
2022-09-11T14:40:06.515Z,0.40
2022-09-11T14:42:36.035Z,0.30
2022-09-11T14:45:10.827Z,0.40
2022-09-11T14:47:39.024Z,0.35
2022-09-11T14:50:06.876Z,0.30
2022-09-11T14:52:36.656Z,0.40
2022-09-11T14:55:03.641Z,0.38
2022-09-11T14:57:33.713Z,0.47
2022-09-11T15:00:00.571Z,0.30
2022-09-11T15:02:29.144Z,0.40
2022-09-11T15:04:57.834Z,0.40
2022-09-11T15:07:25.740Z,0.50
2022-09-11T15:09:54.733Z,0.40
2022-09-11T15:12:22.130Z,0.60
2022-09-11T15:14:58.021Z,0.40
2022-09-11T15:17:25.959Z,0.50
2022-09-11T15:19:53.321Z,0.38
2022-09-11T15:22:19.936Z,0.30
2022-09-11T15:24:47.030Z,0.35
2022-09-11T15:27:19.948Z,0.35
2022-09-11T15:29:46.569Z,0.30
2022-09-11T15:32:14.321Z,0.40
2022-09-11T15:34:42.110Z,0.43
2022-09-11T15:37:08.898Z,0.40
2022-09-11T15:39:35.492Z,0.30
2022-09-11T15:42:02.260Z,0.38
2022-09-11T15:44:30.057Z,0.32
2022-09-11T15:46:58.394Z,0.30
2022-09-11T15:49:28.292Z,0.30
2022-09-11T15:51:55.698Z,0.40
2022-09-11T15:54:23.360Z,0.40
2022-09-11T15:56:50.858Z,0.38
2022-09-11T15:59:17.797Z,0.30
2022-09-11T16:01:46.136Z,0.40
2022-09-11T16:04:17.415Z,0.30
2022-09-11T16:06:46.115Z,0.30
2022-09-11T16:09:16.502Z,0.40
2022-09-11T16:11:43.857Z,0.30
2022-09-11T16:14:25.888Z,0.52
2022-09-11T16:16:53.335Z,0.50
2022-09-11T16:19:22.449Z,0.30
2022-09-11T16:21:51.786Z,0.40
2022-09-11T16:24:18.390Z,0.40
2022-09-11T16:26:45.127Z,0.30
2022-09-11T16:29:15.092Z,0.30
2022-09-11T16:31:42.429Z,0.30
2022-09-11T16:34:09.429Z,0.30
2022-09-11T16:36:40.364Z,0.32
2022-09-11T16:39:12.279Z,0.40
2022-09-11T16:41:39.229Z,0.50
2022-09-11T16:44:09.053Z,0.40
2022-09-11T16:46:36.394Z,0.50
2022-09-11T16:49:03.493Z,0.50
2022-09-11T16:51:30.603Z,0.50
2022-09-11T16:53:57.797Z,0.40
2022-09-11T16:56:25.953Z,0.40
2022-09-11T16:58:54.575Z,0.47
2022-09-11T17:01:24.478Z,0.50
2022-09-11T17:03:53.500Z,0.40
2022-09-11T17:06:22.119Z,0.60
2022-09-11T17:08:55.365Z,0.50
2022-09-11T17:11:25.574Z,0.50
2022-09-11T17:14:23.804Z,0.50
2022-09-11T17:16:50.417Z,0.40
2022-09-11T17:19:20.639Z,0.50
2022-09-11T17:21:47.235Z,0.47
2022-09-11T17:24:17.793Z,0.60
2022-09-11T17:26:45.342Z,0.63
2022-09-11T17:29:12.453Z,0.60
2022-09-11T17:31:39.053Z,0.50
2022-09-11T17:34:05.699Z,0.45
2022-09-11T17:36:32.272Z,0.40
2022-09-11T17:38:59.357Z,0.80
2022-09-11T17:41:26.003Z,0.55
2022-09-11T17:43:53.137Z,0.60
2022-09-11T17:46:21.997Z,0.55
2022-09-11T17:48:48.662Z,0.50
2022-09-11T17:51:21.676Z,0.50
2022-09-11T17:53:53.551Z,0.60
2022-09-11T17:56:23.021Z,0.70
2022-09-11T17:58:51.646Z,0.60
2022-09-11T18:01:19.012Z,0.63
2022-09-11T18:03:51.070Z,0.60
2022-09-11T18:06:34.466Z,0.75
2022-09-11T18:09:05.332Z,0.85
2022-09-11T18:11:32.729Z,0.60
2022-09-11T18:14:00.414Z,0.70
2022-09-11T18:16:27.672Z,0.75
2022-09-11T18:18:55.449Z,0.60
2022-09-11T18:21:22.369Z,0.70
2022-09-11T18:23:49.832Z,0.82
2022-09-11T18:26:22.330Z,0.70
2022-09-11T18:28:50.110Z,0.77
2022-09-11T18:31:16.849Z,1.13
2022-09-11T18:33:44.790Z,0.90
2022-09-11T18:36:13.358Z,1.10
2022-09-11T18:38:40.410Z,1.00
2022-09-11T18:41:07.098Z,0.85
2022-09-11T18:43:33.703Z,0.90
2022-09-11T18:46:03.465Z,0.93
2022-09-11T18:48:30.016Z,1.02
2022-09-11T18:50:57.256Z,1.25
2022-09-11T18:53:24.012Z,1.15
2022-09-11T18:56:05.202Z,1.30
2022-09-11T18:58:33.497Z,1.00
2022-09-11T19:01:05.225Z,1.00
2022-09-11T19:03:32.041Z,1.25
2022-09-11T19:06:07.536Z,1.42
2022-09-11T19:08:34.752Z,1.13
2022-09-11T19:11:07.694Z,1.35
2022-09-11T19:13:34.300Z,1.40
2022-09-11T19:16:01.023Z,1.40
2022-09-11T19:18:27.707Z,1.60
2022-09-11T19:21:00.231Z,1.35
2022-09-11T19:23:30.259Z,1.80
2022-09-11T19:26:04.037Z,1.50
2022-09-11T19:28:32.306Z,1.40
2022-09-11T19:31:00.947Z,2.13
2022-09-11T19:33:30.619Z,1.90
2022-09-11T19:36:00.206Z,2.10
2022-09-11T19:38:27.489Z,2.00
2022-09-11T19:40:54.056Z,2.00
2022-09-11T19:43:25.289Z,1.77
2022-09-11T19:45:52.014Z,2.00
2022-09-11T19:48:19.060Z,2.33
2022-09-11T19:50:45.645Z,2.17
2022-09-11T19:53:12.353Z,2.97
2022-09-11T19:55:39.031Z,2.63
2022-09-11T19:58:05.932Z,2.60
2022-09-11T20:00:36.943Z,2.88
2022-09-11T20:03:06.628Z,2.70
2022-09-11T20:05:33.391Z,2.97
2022-09-11T20:08:00.493Z,2.30
2022-09-11T20:10:27.679Z,2.70
2022-09-11T20:12:54.726Z,2.17
2022-09-11T20:15:21.240Z,3.05
2022-09-11T20:17:47.937Z,2.63
2022-09-11T20:20:14.918Z,2.92
2022-09-11T20:22:41.726Z,3.40
2022-09-11T20:25:08.842Z,3.60
2022-09-11T20:27:35.411Z,3.47
2022-09-11T20:30:01.941Z,3.90
2022-09-11T20:32:28.643Z,3.58
2022-09-11T20:34:55.596Z,4.57
2022-09-11T20:37:22.773Z,3.85
2022-09-11T20:39:49.343Z,3.90
2022-09-11T20:42:15.962Z,4.28
2022-09-11T20:44:42.567Z,3.95
2022-09-11T20:47:11.661Z,4.05
2022-09-11T20:49:38.281Z,3.60
2022-09-11T20:52:04.935Z,3.85
2022-09-11T20:54:31.555Z,3.85
2022-09-11T20:56:58.079Z,3.33
2022-09-11T20:59:24.745Z,4.32
2022-09-11T21:01:51.328Z,4.45
2022-09-11T21:04:17.904Z,4.55
2022-09-11T21:06:45.287Z,4.88
2022-09-11T21:09:12.491Z,4.70
2022-09-11T21:11:41.516Z,5.43
2022-09-11T21:14:08.149Z,5.90
2022-09-11T21:16:34.893Z,6.72
2022-09-11T21:19:02.169Z,6.57
2022-09-11T21:21:29.915Z,7.32
2022-09-11T21:23:58.593Z,6.65
2022-09-11T21:26:26.241Z,7.35
2022-09-11T21:28:53.091Z,6.13
2022-09-11T21:31:19.869Z,6.60
2022-09-11T21:33:46.484Z,6.32
2022-09-11T21:36:13.071Z,5.60
2022-09-11T21:38:39.765Z,5.55
2022-09-11T21:41:08.669Z,6.10
2022-09-11T21:43:35.627Z,5.75
2022-09-11T21:46:03.872Z,5.55
2022-09-11T21:48:35.779Z,5.72
2022-09-11T21:51:11.074Z,5.60
2022-09-11T21:53:39.719Z,5.38
2022-09-11T21:56:07.853Z,5.72
2022-09-11T21:58:34.529Z,5.03
2022-09-11T22:01:06.104Z,5.25
2022-09-11T22:03:33.200Z,5.10
2022-09-11T22:06:00.027Z,5.80
2022-09-11T22:08:26.687Z,5.60
2022-09-11T22:10:53.288Z,6.57
2022-09-11T22:13:19.983Z,6.10
2022-09-11T22:15:49.905Z,6.07
2022-09-11T22:18:17.617Z,6.25
2022-09-11T22:20:44.295Z,6.22
2022-09-11T22:23:16.942Z,5.55
2022-09-11T22:25:45.100Z,5.60
2022-09-11T22:28:12.005Z,5.47
2022-09-11T22:30:43.569Z,6.00
2022-09-11T22:33:10.910Z,5.88
2022-09-11T22:35:37.616Z,7.00
2022-09-11T22:38:04.334Z,7.47
2022-09-11T22:40:31.241Z,6.97
2022-09-11T22:42:57.976Z,7.43
2022-09-11T22:45:24.796Z,7.15
2022-09-11T22:47:51.535Z,7.43
2022-09-11T22:50:18.577Z,8.18
2022-09-11T22:52:45.554Z,8.43
2022-09-11T22:55:12.364Z,7.85
2022-09-11T22:57:39.077Z,9.05
2022-09-11T23:00:08.876Z,8.65
2022-09-11T23:02:36.216Z,9.05
2022-09-11T23:05:23.875Z,8.88
2022-09-11T23:07:51.854Z,8.57
2022-09-11T23:10:20.917Z,8.25
2022-09-11T23:12:47.558Z,8.50
2022-09-11T23:15:14.257Z,8.00
2022-09-11T23:17:40.964Z,8.20
2022-09-11T23:20:07.881Z,7.93
2022-09-11T23:22:34.618Z,7.97
2022-09-11T23:25:01.242Z,8.48
2022-09-11T23:27:27.997Z,8.57
2022-09-11T23:29:54.650Z,8.25
2022-09-11T23:32:21.248Z,8.88
2022-09-11T23:34:47.904Z,9.13
2022-09-11T23:37:14.522Z,8.45
2022-09-11T23:39:42.786Z,9.85
2022-09-11T23:42:09.697Z,9.73
2022-09-11T23:44:36.282Z,10.07
2022-09-11T23:47:02.987Z,9.23
2022-09-11T23:49:33.139Z,9.75
2022-09-11T23:52:02.432Z,9.25
2022-09-11T23:54:29.027Z,9.52
2022-09-11T23:56:55.664Z,10.57
2022-09-11T23:59:22.341Z,10.75
